Time;durP1;ratioP1;P1;durP2;ratioP2;P2;SDS_P1;SDS_P2;PMS_P1;PMS_P2;Temp;Humidity;BMP_temperature;BMP_pressure;BME280_temperature;BME280_humidity;BME280_pressure;Samples;Min_cycle;Max_cycle;Signal;HPM_P1;HPM_P2
2022/09/24 00:00:26;;;;;;;;;;;;;;;;;;4936400;29;20054;-68
2022/09/24 00:02:51;;;;;;;2.45;2.20;;;;;;;;;;4935950;29;20298;-68
2022/09/24 00:05:17;;;;;;;2.70;2.20;;;;;;;;;;4935090;29;20546;-68
2022/09/24 00:07:42;;;;;;;2.10;1.90;;;;;;;;;;4935657;29;20032;-67
2022/09/24 00:10:08;;;;;;;2.08;1.88;;;;;;;;;;4935629;29;20026;-66
2022/09/24 00:12:34;;;;;;;1.80;1.70;;;;;;;;;;4935590;29;20111;-68
2022/09/24 00:14:59;;;;;;;1.90;1.80;;;;;;;;;;4935595;29;20027;-68
2022/09/24 00:17:25;;;;;;;2.38;1.90;;;;;;;;;;4935724;29;20036;-69
2022/09/24 00:19:50;;;;;;;2.22;2.03;;;;;;;;;;4935786;29;20483;-68
2022/09/24 00:22:15;;;;;;;1.77;1.67;;;;;;;;;;4935397;29;20059;-68
2022/09/24 00:27:26;;;;;;;1.80;1.70;;;;;;;;;;4935384;29;20086;-69
2022/09/24 00:29:51;;;;;;;2.28;2.03;;;;;;;;;;4934232;29;20039;-69
2022/09/24 00:32:17;;;;;;;2.08;1.88;;;;;;;;;;4935610;29;20032;-69
2022/09/24 00:34:42;;;;;;;2.28;2.00;;;;;;;;;;4935266;29;20388;-68
2022/09/24 00:37:07;;;;;;;2.45;1.98;;;;;;;;;;4933824;29;20111;-69
2022/09/24 00:39:33;;;;;;;4.22;1.80;;;;;;;;;;4935232;29;20030;-69
2022/09/24 00:41:58;;;;;;;3.13;2.20;;;;;;;;;;4935453;29;20023;-69
2022/09/24 00:44:53;;;;;;;2.00;1.77;;;;;;;;;;4935482;29;20062;-67
2022/09/24 00:47:34;;;;;;;3.13;2.00;;;;;;;;;;4935451;29;20122;-67
2022/09/24 00:50:06;;;;;;;2.40;1.80;;;;;;;;;;4935416;29;20403;-67
2022/09/24 00:52:36;;;;;;;2.13;1.92;;;;;;;;;;4935395;29;20086;-67
2022/09/24 00:55:02;;;;;;;2.83;2.00;;;;;;;;;;4935182;29;20032;-67
2022/09/24 00:57:28;;;;;;;2.38;1.92;;;;;;;;;;4935284;29;20042;-68
2022/09/24 00:59:54;;;;;;;1.85;1.75;;;;;;;;;;4935051;29;20023;-67
2022/09/24 01:02:20;;;;;;;2.30;2.10;;;;;;;;;;4935308;29;20035;-67
2022/09/24 01:04:45;;;;;;;3.10;2.30;;;;;;;;;;4935287;29;20088;-68
2022/09/24 01:07:11;;;;;;;2.03;1.83;;;;;;;;;;4935304;29;20024;-68
2022/09/24 01:09:36;;;;;;;2.88;2.05;;;;;;;;;;4935240;29;20494;-68
2022/09/24 01:12:37;;;;;;;2.33;2.10;;;;;;;;;;4934962;29;20102;-68
2022/09/24 01:15:27;;;;;;;2.92;1.90;;;;;;;;;;4934650;29;20463;-68
2022/09/24 01:18:08;;;;;;;2.13;1.98;;;;;;;;;;4938695;29;20416;-68
2022/09/24 01:20:43;;;;;;;2.08;1.88;;;;;;;;;;4938747;29;20027;-69
2022/09/24 01:23:33;;;;;;;2.13;1.92;;;;;;;;;;4938986;29;20361;-69
2022/09/24 01:26:18;;;;;;;;;;;;;;;;;;4939309;29;20472;-67
2022/09/24 01:29:11;;;;;;;2.75;2.20;;;;;;;;;;4938565;29;19915;-68
2022/09/24 01:31:40;;;;;;;2.90;1.90;;;;;;;;;;4938763;29;20040;-67
2022/09/24 01:34:07;;;;;;;2.03;1.88;;;;;;;;;;4937286;29;20034;-68
2022/09/24 01:36:35;;;;;;;2.05;1.85;;;;;;;;;;4938011;29;20126;-68
2022/09/24 01:39:03;;;;;;;2.40;2.20;;;;;;;;;;4938560;29;20054;-68
2022/09/24 01:41:32;;;;;;;2.38;1.90;;;;;;;;;;4938484;29;20036;-67
2022/09/24 01:43:59;;;;;;;2.47;2.05;;;;;;;;;;4937364;29;20034;-68
2022/09/24 01:46:25;;;;;;;2.10;1.90;;;;;;;;;;4938463;29;20054;-68
2022/09/24 01:48:50;;;;;;;3.15;1.83;;;;;;;;;;4938548;29;20035;-68
2022/09/24 01:51:32;;;;;;;2.10;1.80;;;;;;;;;;4938390;29;20377;-68
2022/09/24 01:54:05;;;;;;;2.22;2.00;;;;;;;;;;4938200;29;20106;-68
2022/09/24 01:56:40;;;;;;;2.30;2.10;;;;;;;;;;4938009;29;20128;-67
2022/09/24 01:59:27;;;;;;;2.22;1.88;;;;;;;;;;4938036;29;20563;-70
2022/09/24 02:02:03;;;;;;;3.33;2.00;;;;;;;;;;4938151;29;20420;-69
2022/09/24 02:04:32;;;;;;;3.25;1.95;;;;;;;;;;4938238;29;20054;-69
2022/09/24 02:07:03;;;;;;;2.65;2.28;;;;;;;;;;4937856;29;20043;-69
2022/09/24 02:09:34;;;;;;;2.47;1.98;;;;;;;;;;4938138;29;20032;-69
2022/09/24 02:12:22;;;;;;;2.38;2.17;;;;;;;;;;4937669;29;20032;-70
2022/09/24 02:14:55;;;;;;;2.30;1.92;;;;;;;;;;4937996;29;20035;-69
2022/09/24 02:17:24;;;;;;;2.30;1.98;;;;;;;;;;4937814;29;20062;-69
2022/09/24 02:19:51;;;;;;;2.53;1.95;;;;;;;;;;4937930;29;20153;-70
2022/09/24 02:22:17;;;;;;;2.92;1.90;;;;;;;;;;4937610;29;20058;-69
2022/09/24 02:24:49;;;;;;;3.03;2.38;;;;;;;;;;4937569;29;20063;-69
2022/09/24 02:27:16;;;;;;;2.55;1.90;;;;;;;;;;4937297;29;20385;-69
2022/09/24 02:29:43;;;;;;;2.30;2.00;;;;;;;;;;4937526;29;20479;-70
2022/09/24 02:32:13;;;;;;;1.90;1.70;;;;;;;;;;4937313;29;20118;-70
2022/09/24 02:34:46;;;;;;;2.00;1.70;;;;;;;;;;4937390;29;20507;-70
2022/09/24 02:37:13;;;;;;;2.03;1.83;;;;;;;;;;4937087;29;20056;-69
2022/09/24 02:39:39;;;;;;;2.85;1.83;;;;;;;;;;4937565;29;20066;-70
2022/09/24 02:42:06;;;;;;;2.33;2.13;;;;;;;;;;4937164;29;20027;-70
2022/09/24 02:44:33;;;;;;;2.83;2.10;;;;;;;;;;4937419;29;20076;-70
2022/09/24 02:46:59;;;;;;;2.22;1.83;;;;;;;;;;4937241;29;20441;-69
2022/09/24 02:49:24;;;;;;;1.92;1.73;;;;;;;;;;4937134;29;20062;-70
2022/09/24 02:51:50;;;;;;;2.85;2.08;;;;;;;;;;4937073;29;20071;-69
2022/09/24 02:54:15;;;;;;;2.03;1.80;;;;;;;;;;4937289;29;20063;-68
2022/09/24 02:56:41;;;;;;;2.05;1.85;;;;;;;;;;4936917;29;20093;-68
2022/09/24 02:59:07;;;;;;;2.70;2.05;;;;;;;;;;4936960;29;20071;-69
2022/09/24 03:01:34;;;;;;;2.20;1.80;;;;;;;;;;4936813;29;20476;-69
2022/09/24 03:03:59;;;;;;;2.97;2.22;;;;;;;;;;4937135;29;20111;-69
2022/09/24 03:06:25;;;;;;;3.00;2.33;;;;;;;;;;4937084;29;20106;-69
2022/09/24 03:08:52;;;;;;;2.45;2.05;;;;;;;;;;4936691;29;20334;-68
2022/09/24 03:11:18;;;;;;;2.30;2.10;;;;;;;;;;4936955;29;20035;-69
2022/09/24 03:13:44;;;;;;;2.47;2.13;;;;;;;;;;4936640;29;20035;-70
2022/09/24 03:16:09;;;;;;;2.25;2.05;;;;;;;;;;4936824;29;20032;-70
2022/09/24 03:18:35;;;;;;;2.28;2.08;;;;;;;;;;4936721;29;20559;-69
2022/09/24 03:21:03;;;;;;;2.72;1.90;;;;;;;;;;4936552;29;20031;-69
2022/09/24 03:23:29;;;;;;;3.95;2.00;;;;;;;;;;4936686;29;20032;-69
2022/09/24 03:25:55;;;;;;;2.15;1.95;;;;;;;;;;4936416;29;20433;-69
2022/09/24 03:28:21;;;;;;;2.03;1.80;;;;;;;;;;4936569;29;20079;-68
2022/09/24 03:30:58;;;;;;;2.15;1.85;;;;;;;;;;4936408;29;20103;-69
2022/09/24 03:33:29;;;;;;;3.28;2.30;;;;;;;;;;4936273;29;20476;-69
2022/09/24 03:36:21;;;;;;;2.25;1.85;;;;;;;;;;4936104;29;20467;-69
2022/09/24 03:38:49;;;;;;;2.28;2.05;;;;;;;;;;4933741;29;20082;-70
2022/09/24 03:41:15;;;;;;;2.38;1.85;;;;;;;;;;4935879;29;20023;-70
2022/09/24 03:43:41;;;;;;;2.03;1.70;;;;;;;;;;4936336;29;20429;-69
2022/09/24 03:46:08;;;;;;;2.35;2.13;;;;;;;;;;4936347;29;20028;-69
2022/09/24 03:48:36;;;;;;;1.98;1.80;;;;;;;;;;4936007;29;20563;-69
2022/09/24 03:51:06;;;;;;;3.78;2.03;;;;;;;;;;4935986;29;20043;-70
2022/09/24 03:53:32;;;;;;;2.53;2.25;;;;;;;;;;4935897;29;20028;-68
2022/09/24 03:56:01;;;;;;;2.38;2.10;;;;;;;;;;4936152;29;20031;-69
2022/09/24 03:58:27;;;;;;;3.25;1.80;;;;;;;;;;4935691;29;20496;-69
2022/09/24 04:00:54;;;;;;;2.67;2.08;;;;;;;;;;4935722;29;20035;-69
2022/09/24 04:03:20;;;;;;;2.47;2.03;;;;;;;;;;4935974;29;20024;-69
2022/09/24 04:05:47;;;;;;;3.60;2.50;;;;;;;;;;4935700;29;20028;-69
2022/09/24 04:08:13;;;;;;;2.30;2.10;;;;;;;;;;4935602;29;20036;-69
2022/09/24 04:10:38;;;;;;;2.30;2.10;;;;;;;;;;4935943;29;20034;-69
2022/09/24 04:13:04;;;;;;;2.42;2.00;;;;;;;;;;4935571;29;20469;-69
2022/09/24 04:15:29;;;;;;;2.60;2.17;;;;;;;;;;4935556;29;20043;-69
2022/09/24 04:17:57;;;;;;;2.50;2.08;;;;;;;;;;4935411;29;20035;-69
2022/09/24 04:20:26;;;;;;;2.67;2.20;;;;;;;;;;4935526;29;20028;-68
2022/09/24 04:22:54;;;;;;;3.50;1.83;;;;;;;;;;4935756;29;20035;-69
2022/09/24 04:25:20;;;;;;;2.63;2.05;;;;;;;;;;4935704;29;20031;-69
2022/09/24 04:27:51;;;;;;;2.40;1.70;;;;;;;;;;4935674;29;20026;-70
2022/09/24 04:30:16;;;;;;;2.20;2.00;;;;;;;;;;4935277;29;20031;-70
2022/09/24 04:32:42;;;;;;;2.20;2.00;;;;;;;;;;4935266;29;20035;-70
2022/09/24 04:35:08;;;;;;;2.85;1.90;;;;;;;;;;4935339;29;20028;-69
2022/09/24 04:37:35;;;;;;;1.92;1.83;;;;;;;;;;4935164;29;20035;-69
2022/09/24 04:40:02;;;;;;;2.80;2.13;;;;;;;;;;4935581;29;20131;-69
2022/09/24 04:42:28;;;;;;;2.00;1.80;;;;;;;;;;4935552;29;20034;-69
2022/09/24 04:44:53;;;;;;;2.63;1.92;;;;;;;;;;4935276;29;20020;-69
2022/09/24 04:47:19;;;;;;;2.20;1.98;;;;;;;;;;4935119;29;20078;-69
2022/09/24 04:49:44;;;;;;;2.13;1.92;;;;;;;;;;4935476;29;20028;-69
2022/09/24 04:52:13;;;;;;;2.10;1.90;;;;;;;;;;4940303;29;20039;-70
2022/09/24 04:54:45;;;;;;;2.20;2.00;;;;;;;;;;4941579;29;20701;-69
2022/09/24 04:57:14;;;;;;;2.97;1.90;;;;;;;;;;4941621;29;20111;-69
2022/09/24 04:59:39;;;;;;;3.42;1.90;;;;;;;;;;4941717;29;20023;-69
2022/09/24 05:02:07;;;;;;;2.63;1.70;;;;;;;;;;4941404;29;20629;-69
2022/09/24 05:04:36;;;;;;;2.08;1.90;;;;;;;;;;4941570;29;20027;-69
2022/09/24 05:07:02;;;;;;;2.50;2.10;;;;;;;;;;4941725;29;20035;-70
2022/09/24 05:09:30;;;;;;;2.15;1.95;;;;;;;;;;4941326;29;20032;-69
2022/09/24 05:11:57;;;;;;;2.22;1.90;;;;;;;;;;4941260;29;20031;-69
2022/09/24 05:14:22;;;;;;;2.15;1.95;;;;;;;;;;4941353;29;20464;-69
2022/09/24 05:16:48;;;;;;;2.55;2.05;;;;;;;;;;4941565;29;20039;-69
2022/09/24 05:19:13;;;;;;;2.05;1.95;;;;;;;;;;4941226;29;20829;-68
2022/09/24 05:21:38;;;;;;;2.38;1.90;;;;;;;;;;4941531;29;20515;-69
2022/09/24 05:24:04;;;;;;;2.35;2.15;;;;;;;;;;4941210;29;20023;-69
2022/09/24 05:29:13;;;;;;;2.30;2.10;;;;;;;;;;4941486;29;20104;-69
2022/09/24 05:31:39;;;;;;;2.10;1.90;;;;;;;;;;4941286;29;20126;-69
2022/09/24 05:34:04;;;;;;;2.20;2.00;;;;;;;;;;4941432;29;20027;-69
2022/09/24 05:36:30;;;;;;;2.20;2.00;;;;;;;;;;4939567;29;20070;-69
2022/09/24 05:38:55;;;;;;;3.63;2.42;;;;;;;;;;4941071;29;20087;-69
2022/09/24 05:41:21;;;;;;;2.17;1.90;;;;;;;;;;4941125;29;20059;-69
2022/09/24 05:43:46;;;;;;;2.30;2.10;;;;;;;;;;4941360;29;20071;-68
2022/09/24 05:46:12;;;;;;;2.03;1.85;;;;;;;;;;4941164;29;20019;-69
2022/09/24 05:48:37;;;;;;;2.40;2.20;;;;;;;;;;4941274;29;20126;-69
2022/09/24 05:51:04;;;;;;;1.90;1.80;;;;;;;;;;4941219;29;20373;-68
2022/09/24 05:53:30;;;;;;;3.15;2.50;;;;;;;;;;4940923;29;20027;-70
2022/09/24 05:55:56;;;;;;;2.05;1.85;;;;;;;;;;4941027;29;20030;-70
2022/09/24 05:58:21;;;;;;;2.80;2.05;;;;;;;;;;4941139;29;20118;-70
2022/09/24 06:00:47;;;;;;;2.42;2.00;;;;;;;;;;4940926;29;20477;-71
2022/09/24 06:03:15;;;;;;;2.35;2.10;;;;;;;;;;4938236;29;20035;-70
2022/09/24 06:05:51;;;;;;;2.15;2.00;;;;;;;;;;4938134;29;20464;-70
2022/09/24 06:08:18;;;;;;;2.90;2.10;;;;;;;;;;4938258;29;20043;-68
2022/09/24 06:10:46;;;;;;;3.50;2.15;;;;;;;;;;4937803;29;20028;-71
2022/09/24 06:13:13;;;;;;;2.83;2.20;;;;;;;;;;4937978;29;20024;-70
2022/09/24 06:15:40;;;;;;;2.13;1.83;;;;;;;;;;4937908;29;20435;-69
2022/09/24 06:18:06;;;;;;;2.65;2.38;;;;;;;;;;4937809;29;20122;-69
2022/09/24 06:20:32;;;;;;;2.20;2.00;;;;;;;;;;4937841;29;20059;-70
2022/09/24 06:22:58;;;;;;;3.60;1.98;;;;;;;;;;4937556;29;20118;-69
2022/09/24 06:25:25;;;;;;;2.55;1.92;;;;;;;;;;4937755;29;20023;-69
2022/09/24 06:28:00;;;;;;;2.05;1.85;;;;;;;;;;4937602;29;20425;-70
2022/09/24 06:30:31;;;;;;;2.20;2.00;;;;;;;;;;4936522;29;20039;-70
2022/09/24 06:33:06;;;;;;;2.50;2.15;;;;;;;;;;4937661;29;20032;-68
2022/09/24 06:35:36;;;;;;;1.88;1.77;;;;;;;;;;4937138;29;20046;-71
2022/09/24 06:38:03;;;;;;;2.72;2.00;;;;;;;;;;4937463;29;20032;-71
2022/09/24 06:40:29;;;;;;;2.20;2.00;;;;;;;;;;4937234;29;20040;-70
2022/09/24 06:42:54;;;;;;;2.25;2.00;;;;;;;;;;4937197;29;20020;-71
2022/09/24 06:45:20;;;;;;;2.97;2.10;;;;;;;;;;4937457;29;20384;-70
2022/09/24 06:47:56;;;;;;;2.40;2.10;;;;;;;;;;4937026;29;20066;-71
2022/09/24 06:50:23;;;;;;;2.38;1.92;;;;;;;;;;4937381;29;20039;-70
2022/09/24 06:52:49;;;;;;;2.22;2.03;;;;;;;;;;4937280;29;20122;-70
2022/09/24 06:55:15;;;;;;;2.08;1.85;;;;;;;;;;4937309;29;20055;-70
2022/09/24 06:57:40;;;;;;;2.38;2.17;;;;;;;;;;4937212;29;20032;-70
2022/09/24 07:00:07;;;;;;;2.22;2.00;;;;;;;;;;4937185;29;20094;-70
2022/09/24 07:02:32;;;;;;;2.60;2.17;;;;;;;;;;4936924;29;20027;-69
2022/09/24 07:04:58;;;;;;;2.00;1.90;;;;;;;;;;4936790;29;20071;-70
2022/09/24 07:07:30;;;;;;;3.38;2.22;;;;;;;;;;4936718;29;20024;-70
2022/09/24 07:09:56;;;;;;;2.33;2.03;;;;;;;;;;4936796;29;20040;-70
2022/09/24 07:12:22;;;;;;;1.92;1.77;;;;;;;;;;4936613;29;20086;-69
2022/09/24 07:14:48;;;;;;;2.10;1.90;;;;;;;;;;4936481;29;20031;-69
2022/09/24 07:17:14;;;;;;;1.92;1.70;;;;;;;;;;4936532;29;20055;-69
2022/09/24 07:19:40;;;;;;;2.50;2.30;;;;;;;;;;4936613;29;20068;-69
2022/09/24 07:22:06;;;;;;;2.20;2.00;;;;;;;;;;4933626;29;20083;-69
2022/09/24 07:24:32;;;;;;;3.90;2.03;;;;;;;;;;4936753;29;20059;-69
2022/09/24 07:26:57;;;;;;;2.08;1.88;;;;;;;;;;4927859;29;20481;-71
2022/09/24 07:29:23;;;;;;;2.25;2.05;;;;;;;;;;4922773;29;20035;-69
2022/09/24 07:31:48;;;;;;;2.58;2.05;;;;;;;;;;4926851;29;20040;-70
2022/09/24 07:34:14;;;;;;;2.30;1.90;;;;;;;;;;4924691;29;20036;-70
2022/09/24 07:36:40;;;;;;;2.97;2.03;;;;;;;;;;4916979;29;20052;-73
2022/09/24 07:39:06;;;;;;;2.10;1.90;;;;;;;;;;4925115;29;20385;-69
2022/09/24 07:41:32;;;;;;;1.88;1.75;;;;;;;;;;4935932;29;20031;-72
2022/09/24 07:43:58;;;;;;;2.72;2.15;;;;;;;;;;4935856;29;20362;-72
2022/09/24 07:46:24;;;;;;;1.77;1.67;;;;;;;;;;4935767;29;20027;-72
2022/09/24 07:48:55;;;;;;;2.67;2.10;;;;;;;;;;4933300;29;20574;-72
2022/09/24 07:51:21;;;;;;;2.92;2.15;;;;;;;;;;4936287;29;20099;-72
2022/09/24 07:53:47;;;;;;;2.10;1.90;;;;;;;;;;4935898;29;20477;-72
2022/09/24 07:56:13;;;;;;;2.38;1.85;;;;;;;;;;4936252;29;20034;-73
2022/09/24 07:58:39;;;;;;;2.80;2.10;;;;;;;;;;4936055;29;20028;-72
2022/09/24 08:01:05;;;;;;;2.22;2.03;;;;;;;;;;4932674;29;20047;-69
2022/09/24 08:03:31;;;;;;;2.50;2.03;;;;;;;;;;4923852;29;20047;-72
2022/09/24 08:05:58;;;;;;;1.98;1.88;;;;;;;;;;4925060;29;20030;-73
2022/09/24 08:08:24;;;;;;;1.90;1.80;;;;;;;;;;4919141;29;20553;-71
2022/09/24 08:10:50;;;;;;;1.75;1.65;;;;;;;;;;4916883;29;20032;-71
2022/09/24 08:13:16;;;;;;;3.20;2.13;;;;;;;;;;4916937;29;20028;-69
2022/09/24 08:15:42;;;;;;;2.13;1.90;;;;;;;;;;4916462;29;20381;-73
2022/09/24 08:18:08;;;;;;;2.45;2.25;;;;;;;;;;4916611;29;20036;-69
2022/09/24 08:20:36;;;;;;;2.28;2.08;;;;;;;;;;4916464;29;20028;-73
2022/09/24 08:23:11;;;;;;;1.98;1.80;;;;;;;;;;4916482;29;20028;-72
2022/09/24 08:25:37;;;;;;;2.35;2.05;;;;;;;;;;4918269;29;20053;-72
2022/09/24 08:28:07;;;;;;;2.95;1.80;;;;;;;;;;4924115;29;20079;-71
2022/09/24 08:30:34;;;;;;;2.30;2.00;;;;;;;;;;4935598;29;20038;-73
2022/09/24 08:33:00;;;;;;;2.38;2.00;;;;;;;;;;4935361;29;20032;-73
2022/09/24 08:35:26;;;;;;;2.03;1.85;;;;;;;;;;4935271;29;20054;-70
2022/09/24 08:37:54;;;;;;;2.20;2.00;;;;;;;;;;4935279;29;20156;-71
2022/09/24 08:40:26;;;;;;;5.38;2.05;;;;;;;;;;4935530;29;20055;-74
2022/09/24 08:43:29;;;;;;;2.38;1.80;;;;;;;;;;4933993;29;20034;-74
2022/09/24 08:48:50;;;;;;;2.13;1.90;;;;;;;;;;4936416;29;20082;-72
2022/09/24 08:51:19;;;;;;;2.05;1.80;;;;;;;;;;4935846;29;20036;-75
2022/09/24 08:53:56;;;;;;;2.17;1.98;;;;;;;;;;4933903;29;20113;-75
2022/09/24 08:56:29;;;;;;;2.10;1.90;;;;;;;;;;4935082;29;20028;-73
2022/09/24 08:59:00;;;;;;;2.50;1.70;;;;;;;;;;4935340;29;20419;-73
2022/09/24 09:02:13;;;;;;;3.95;1.75;;;;;;;;;;4935459;29;20168;-74
2022/09/24 09:05:17;;;;;;;2.17;1.88;;;;;;;;;;4927291;29;20384;-70
2022/09/24 09:08:21;;;;;;;3.85;1.80;;;;;;;;;;4856413;29;20085;-71
2022/09/24 09:10:48;;;;;;;5.03;2.55;;;;;;;;;;4837155;29;20033;-71
2022/09/24 09:13:42;;;;;;;1.75;1.65;;;;;;;;;;4899852;29;20522;-70
2022/09/24 09:16:32;;;;;;;4.90;2.20;;;;;;;;;;4909131;29;20048;-69
2022/09/24 09:19:05;;;;;;;5.43;2.40;;;;;;;;;;4915936;29;20036;-69
2022/09/24 09:21:40;;;;;;;5.72;2.05;;;;;;;;;;4915793;29;20036;-70
2022/09/24 09:24:19;;;;;;;2.15;1.92;;;;;;;;;;4920775;29;20370;-69
2022/09/24 09:26:49;;;;;;;3.10;1.80;;;;;;;;;;4915782;29;20036;-69
2022/09/24 09:29:15;;;;;;;;;;;;;;;;;;4916513;29;20024;-70
2022/09/24 09:31:58;;;;;;;4.22;2.00;;;;;;;;;;4915758;29;20387;-70
2022/09/24 09:35:08;;;;;;;2.13;1.70;;;;;;;;;;4919222;29;20039;-71
2022/09/24 09:38:11;;;;;;;4.90;2.20;;;;;;;;;;4923061;29;20052;-71
2022/09/24 09:40:37;;;;;;;2.60;1.80;;;;;;;;;;4927853;29;20040;-70
2022/09/24 09:43:11;;;;;;;2.30;1.60;;;;;;;;;;4926809;29;20084;-70
2022/09/24 09:46:01;;;;;;;2.10;1.90;;;;;;;;;;4926900;29;20024;-70
2022/09/24 09:48:36;;;;;;;2.17;1.65;;;;;;;;;;4926447;29;20027;-71
2022/09/24 09:51:05;;;;;;;2.00;1.80;;;;;;;;;;4926008;29;20052;-71
2022/09/24 09:53:32;;;;;;;3.10;1.90;;;;;;;;;;4922722;29;20377;-71
2022/09/24 09:56:03;;;;;;;3.20;1.70;;;;;;;;;;4924154;29;20035;-71
2022/09/24 09:58:40;;;;;;;2.50;1.65;;;;;;;;;;4924245;29;20492;-72
2022/09/24 10:01:14;;;;;;;2.83;1.85;;;;;;;;;;4924513;29;20106;-76
2022/09/24 10:03:42;;;;;;;2.10;1.90;;;;;;;;;;4922217;29;20051;-72
2022/09/24 10:06:11;;;;;;;2.13;1.58;;;;;;;;;;4920511;29;20024;-69
2022/09/24 10:08:36;;;;;;;1.85;1.70;;;;;;;;;;4923849;29;20035;-69
2022/09/24 10:11:02;;;;;;;2.10;1.90;;;;;;;;;;4923334;29;20402;-69
2022/09/24 10:13:30;;;;;;;2.05;1.75;;;;;;;;;;4922477;29;20374;-70
2022/09/24 10:15:58;;;;;;;4.47;1.92;;;;;;;;;;4921029;29;20417;-69
2022/09/24 10:18:36;;;;;;;3.38;1.88;;;;;;;;;;4916402;29;20040;-69
2022/09/24 10:21:10;;;;;;;5.03;2.00;;;;;;;;;;4918834;29;20038;-65
2022/09/24 10:23:41;;;;;;;3.03;1.90;;;;;;;;;;4929176;29;20023;-65
2022/09/24 10:26:08;;;;;;;3.00;1.70;;;;;;;;;;4937508;29;20035;-71
2022/09/24 10:31:25;;;;;;;;;;;;;;;;;;4938194;29;20495;-66
2022/09/24 10:33:54;;;;;;;3.60;2.03;;;;;;;;;;4937365;29;19919;-65
2022/09/24 10:36:21;;;;;;;5.75;1.90;;;;;;;;;;4937083;29;20063;-67
2022/09/24 10:38:48;;;;;;;2.47;1.90;;;;;;;;;;4931191;29;20029;-65
2022/09/24 10:41:34;;;;;;;3.88;1.77;;;;;;;;;;4937196;29;20492;-65
2022/09/24 10:44:10;;;;;;;2.53;1.73;;;;;;;;;;4937352;29;20032;-65
2022/09/24 10:47:03;;;;;;;1.80;1.70;;;;;;;;;;4937323;29;20031;-66
2022/09/24 10:49:38;;;;;;;2.15;1.80;;;;;;;;;;4934952;29;20030;-65
2022/09/24 10:52:13;;;;;;;2.83;1.88;;;;;;;;;;4935751;29;20091;-65
2022/09/24 10:55:01;;;;;;;2.55;1.92;;;;;;;;;;4935551;29;20095;-66
2022/09/24 10:57:33;;;;;;;1.85;1.70;;;;;;;;;;4925791;29;20044;-66
2022/09/24 11:00:33;;;;;;;1.80;1.70;;;;;;;;;;4916162;29;20032;-66
2022/09/24 11:03:14;;;;;;;1.80;1.70;;;;;;;;;;4897477;29;20037;-64
2022/09/24 11:05:48;;;;;;;2.88;1.90;;;;;;;;;;4897700;29;20083;-64
2022/09/24 11:08:20;;;;;;;2.00;1.90;;;;;;;;;;4897604;29;20032;-65
2022/09/24 11:11:08;;;;;;;2.85;2.00;;;;;;;;;;4897365;29;20021;-63
2022/09/24 11:13:54;;;;;;;2.00;1.90;;;;;;;;;;4897492;29;20040;-65
2022/09/24 11:16:41;;;;;;;1.90;1.70;;;;;;;;;;4897486;29;20045;-65
2022/09/24 11:19:17;;;;;;;2.05;1.88;;;;;;;;;;4901050;29;20043;-65
2022/09/24 11:22:07;;;;;;;2.20;2.00;;;;;;;;;;4934745;29;20043;-64
2022/09/24 11:24:44;;;;;;;4.15;1.92;;;;;;;;;;4935278;29;20082;-64
2022/09/24 11:27:31;;;;;;;2.00;1.80;;;;;;;;;;4935005;29;20031;-65
2022/09/24 11:30:13;;;;;;;3.75;1.95;;;;;;;;;;4934761;29;20024;-63
2022/09/24 11:33:06;;;;;;;2.17;1.98;;;;;;;;;;4934684;29;20063;-67
2022/09/24 11:35:55;;;;;;;2.42;2.03;;;;;;;;;;4934819;29;20055;-72
2022/09/24 11:38:50;;;;;;;4.57;1.90;;;;;;;;;;4934694;29;20035;-70
2022/09/24 11:41:41;;;;;;;2.20;1.80;;;;;;;;;;4934845;29;20062;-64
2022/09/24 11:44:22;;;;;;;2.40;2.20;;;;;;;;;;4922675;29;20032;-65
2022/09/24 11:47:20;;;;;;;5.05;1.85;;;;;;;;;;4921315;29;20024;-72
2022/09/24 11:49:56;;;;;;;1.95;1.77;;;;;;;;;;4924648;29;20545;-67
2022/09/24 11:52:37;;;;;;;4.13;1.90;;;;;;;;;;4928825;29;20111;-63
2022/09/24 11:55:11;;;;;;;4.60;1.90;;;;;;;;;;4933055;29;20039;-67
2022/09/24 11:57:43;;;;;;;3.42;2.22;;;;;;;;;;4934030;29;20396;-66
2022/09/24 12:00:19;;;;;;;2.75;2.35;;;;;;;;;;4926690;29;20040;-69
2022/09/24 12:02:47;;;;;;;4.65;2.13;;;;;;;;;;4919619;29;20392;-64
2022/09/24 12:05:54;;;;;;;2.22;2.03;;;;;;;;;;4919436;29;20032;-65
2022/09/24 12:08:28;;;;;;;3.20;2.00;;;;;;;;;;4919586;29;20047;-65
2022/09/24 12:11:15;;;;;;;2.30;2.10;;;;;;;;;;4921790;29;20164;-66
2022/09/24 12:14:24;;;;;;;2.78;2.30;;;;;;;;;;4923675;29;20028;-65
2022/09/24 12:16:55;;;;;;;2.42;2.22;;;;;;;;;;4871811;29;20036;-65
2022/09/24 12:19:26;;;;;;;5.68;2.17;;;;;;;;;;4912738;29;20511;-66
2022/09/24 12:21:53;;;;;;;4.13;2.28;;;;;;;;;;4917004;29;20048;-65
2022/09/24 12:24:21;;;;;;;2.47;2.22;;;;;;;;;;4920194;29;20078;-65
2022/09/24 12:26:48;;;;;;;2.55;2.30;;;;;;;;;;4913401;29;20429;-66
2022/09/24 12:32:54;;;;;;;2.40;2.08;;;;;;;;;;4913655;29;20412;-65
2022/09/24 12:35:56;;;;;;;3.83;2.00;;;;;;;;;;4913125;29;20040;-66
2022/09/24 12:38:36;;;;;;;2.42;2.10;;;;;;;;;;4914325;29;20068;-66
2022/09/24 12:41:14;;;;;;;4.68;2.45;;;;;;;;;;4914700;29;20468;-65
2022/09/24 12:44:04;;;;;;;2.65;2.00;;;;;;;;;;4914700;29;20389;-65
2022/09/24 12:46:44;;;;;;;2.58;2.38;;;;;;;;;;4914692;29;20496;-65
2022/09/24 12:49:25;;;;;;;3.28;2.45;;;;;;;;;;4914924;29;20052;-65
2022/09/24 12:51:57;;;;;;;3.05;2.30;;;;;;;;;;4914784;29;20179;-66
2022/09/24 12:54:33;;;;;;;2.33;2.13;;;;;;;;;;4914725;29;20051;-66
2022/09/24 12:57:11;;;;;;;2.25;2.05;;;;;;;;;;4915145;29;20373;-66
2022/09/24 12:59:45;;;;;;;2.85;2.10;;;;;;;;;;4914791;29;20385;-65
2022/09/24 13:02:18;;;;;;;2.15;1.98;;;;;;;;;;4914582;29;20059;-65
2022/09/24 13:05:10;;;;;;;2.45;2.25;;;;;;;;;;4913098;29;20075;-65
2022/09/24 13:08:20;;;;;;;2.80;2.30;;;;;;;;;;4894216;29;20048;-66
2022/09/24 13:11:05;;;;;;;2.40;2.20;;;;;;;;;;4898985;29;20050;-66
2022/09/24 13:13:36;;;;;;;3.58;2.38;;;;;;;;;;4917870;29;20484;-66
2022/09/24 13:16:05;;;;;;;3.70;2.30;;;;;;;;;;4918382;29;20040;-65
2022/09/24 13:18:35;;;;;;;4.57;2.30;;;;;;;;;;4918400;29;20032;-66
2022/09/24 13:21:04;;;;;;;2.53;2.20;;;;;;;;;;4918269;29;20092;-66
2022/09/24 13:23:51;;;;;;;2.83;2.22;;;;;;;;;;4917971;29;20473;-65
2022/09/24 13:26:19;;;;;;;2.05;1.92;;;;;;;;;;4917637;29;20511;-65
2022/09/24 13:28:50;;;;;;;2.95;2.05;;;;;;;;;;4917919;29;20024;-65
2022/09/24 13:31:22;;;;;;;2.28;2.08;;;;;;;;;;4918173;29;20028;-65
2022/09/24 13:33:55;;;;;;;2.35;2.15;;;;;;;;;;4917800;29;20067;-65
2022/09/24 13:36:32;;;;;;;2.42;2.22;;;;;;;;;;4917690;29;20047;-65
2022/09/24 13:39:03;;;;;;;2.50;2.30;;;;;;;;;;4917905;29;20043;-66
2022/09/24 13:41:39;;;;;;;5.10;2.30;;;;;;;;;;4917803;29;20472;-65
2022/09/24 13:44:21;;;;;;;2.20;2.00;;;;;;;;;;4917807;29;20040;-66
2022/09/24 13:46:52;;;;;;;2.35;2.15;;;;;;;;;;4917807;29;20080;-65
2022/09/24 13:49:19;;;;;;;3.28;2.22;;;;;;;;;;4917643;29;20036;-66
2022/09/24 13:51:55;;;;;;;5.88;2.60;;;;;;;;;;4917438;29;20032;-65
2022/09/24 13:54:43;;;;;;;2.08;1.95;;;;;;;;;;4917729;29;20063;-66
2022/09/24 13:57:18;;;;;;;2.75;2.20;;;;;;;;;;4917475;29;20063;-66
2022/09/24 13:59:43;;;;;;;3.78;2.30;;;;;;;;;;4917331;29;20024;-65
2022/09/24 14:02:27;;;;;;;2.67;2.20;;;;;;;;;;4917425;29;20031;-65
2022/09/24 14:04:57;;;;;;;3.30;2.35;;;;;;;;;;4917162;29;20028;-66
2022/09/24 14:07:24;;;;;;;2.85;2.15;;;;;;;;;;4917341;29;20029;-65
2022/09/24 14:10:01;;;;;;;2.60;2.40;;;;;;;;;;4917201;29;20035;-65
2022/09/24 14:12:28;;;;;;;2.10;1.90;;;;;;;;;;4917114;29;20091;-65
2022/09/24 14:14:56;;;;;;;3.60;2.30;;;;;;;;;;4917186;29;20039;-66
2022/09/24 14:17:23;;;;;;;2.10;2.00;;;;;;;;;;4917212;29;20083;-65
2022/09/24 14:19:54;;;;;;;3.13;2.40;;;;;;;;;;4916887;29;20032;-66
2022/09/24 14:22:21;;;;;;;2.70;2.42;;;;;;;;;;4917025;29;20093;-66
2022/09/24 14:24:56;;;;;;;3.10;2.35;;;;;;;;;;4916478;29;20413;-66
2022/09/24 14:27:25;;;;;;;2.63;2.25;;;;;;;;;;4917182;29;20047;-65
2022/09/24 14:30:04;;;;;;;2.67;2.30;;;;;;;;;;4916962;29;20036;-66
2022/09/24 14:32:41;;;;;;;2.60;2.40;;;;;;;;;;4916792;29;20068;-66
2022/09/24 14:35:20;;;;;;;3.20;2.15;;;;;;;;;;4916853;29;20064;-66
2022/09/24 14:37:58;;;;;;;5.70;2.22;;;;;;;;;;4916815;29;20100;-65
2022/09/24 14:40:26;;;;;;;2.47;2.25;;;;;;;;;;4916760;29;20623;-66
2022/09/24 14:42:55;;;;;;;3.58;2.10;;;;;;;;;;4916811;29;20039;-65
2022/09/24 14:45:33;;;;;;;2.58;2.38;;;;;;;;;;4916625;29;20413;-65
2022/09/24 14:48:18;;;;;;;2.42;2.15;;;;;;;;;;4916660;29;20036;-66
2022/09/24 14:50:44;;;;;;;3.25;2.35;;;;;;;;;;4916211;29;20043;-65
2022/09/24 14:53:23;;;;;;;3.05;2.30;;;;;;;;;;4916342;29;20437;-65
2022/09/24 14:55:49;;;;;;;3.05;2.28;;;;;;;;;;4916409;29;20024;-65
2022/09/24 14:58:27;;;;;;;4.97;2.28;;;;;;;;;;4916331;29;20115;-65
2022/09/24 15:00:56;;;;;;;2.97;2.30;;;;;;;;;;4916658;29;20036;-65
2022/09/24 15:03:47;;;;;;;3.07;2.47;;;;;;;;;;4916581;29;20084;-65
2022/09/24 15:06:18;;;;;;;2.72;2.17;;;;;;;;;;4916546;29;20024;-65
2022/09/24 15:09:09;;;;;;;2.80;2.60;;;;;;;;;;4916394;29;20193;-65
2022/09/24 15:11:36;;;;;;;2.90;2.55;;;;;;;;;;4916338;29;20032;-65
2022/09/24 15:14:07;;;;;;;2.00;1.90;;;;;;;;;;4914771;29;20396;-65
2022/09/24 15:16:34;;;;;;;2.50;2.30;;;;;;;;;;4916252;29;20032;-65
2022/09/24 15:19:06;;;;;;;2.65;2.38;;;;;;;;;;4916175;29;20088;-65
2022/09/24 15:21:35;;;;;;;2.28;2.08;;;;;;;;;;4915870;29;20504;-64
2022/09/24 15:24:01;;;;;;;2.50;2.30;;;;;;;;;;4916022;29;20040;-65
2022/09/24 15:26:29;;;;;;;3.70;2.30;;;;;;;;;;4916085;29;20453;-65